CRA weather

Candelaria Airport
Candeleria, Campeche, Mexico

Public forecast

Using degrees Celsius for public forecast. Weather courtesy of forecast.io.

METAR (pilot weather report)

Closest report is Ciudad del Carmen International Airport, 52.6 nm (97.4 km) WNW. Retrieved 2019/06/17 21:45 UTC (51 minutes ago):

MMCE 172145Z 09008KT 7SM BKN280 34/24 A2979 RMK 8/008 CU

TAF (pilot weather forecast)

Closest forecast is Ciudad del Carmen International Airport, 52.6 nm (97.4 km) WNW. Retrieved 2019/06/17 18:45 UTC (4 hours ago):

TAF TAF MMCE 171642Z 1718/1818 14015KT P6SM BKN300 FM172100 04010KT P6SM SCT015 BKN250 TEMPO 1723/1803 VC CB FM180600 12010KT P6SM SKC FM181400 12015KT P6SM SCT020